createdAt,value
2023-04-24T00:00:27.861Z,13.70
2023-04-24T00:02:58.889Z,13.70
2023-04-24T00:05:27.349Z,13.70
2023-04-24T00:07:56.223Z,13.70
2023-04-24T00:10:24.309Z,13.70
2023-04-24T00:12:52.361Z,13.70
2023-04-24T00:15:20.322Z,13.80
2023-04-24T00:17:48.678Z,13.70
2023-04-24T00:20:18.155Z,13.60
2023-04-24T00:22:46.147Z,13.60
2023-04-24T00:25:14.112Z,13.50
2023-04-24T00:27:42.303Z,13.50
2023-04-24T00:30:11.137Z,13.30
2023-04-24T00:32:39.218Z,13.30
2023-04-24T00:35:08.279Z,13.20
2023-04-24T00:37:37.815Z,13.20
2023-04-24T00:40:07.339Z,13.10
2023-04-24T00:42:35.919Z,13.10
2023-04-24T00:45:05.252Z,13.00
2023-04-24T00:47:34.736Z,13.00
2023-04-24T00:50:04.107Z,13.10
2023-04-24T00:52:33.170Z,13.10
2023-04-24T00:55:02.542Z,13.00
2023-04-24T00:57:30.970Z,12.90
2023-04-24T00:59:59.315Z,12.80
2023-04-24T01:02:27.976Z,12.80
2023-04-24T01:04:56.213Z,12.80
2023-04-24T01:07:24.478Z,12.80
2023-04-24T01:09:53.216Z,12.80
2023-04-24T01:12:22.611Z,12.80
2023-04-24T01:14:51.209Z,12.80
2023-04-24T01:17:19.264Z,12.80
2023-04-24T01:19:47.227Z,12.80
2023-04-24T01:22:17.312Z,12.80
2023-04-24T01:24:45.415Z,12.80
2023-04-24T01:27:13.507Z,12.70
2023-04-24T01:29:42.046Z,12.70
2023-04-24T01:32:10.713Z,12.50
2023-04-24T01:34:39.363Z,12.50
2023-04-24T01:37:07.353Z,12.50
2023-04-24T01:39:36.985Z,12.50
2023-04-24T01:42:05.119Z,12.50
2023-04-24T01:44:33.475Z,12.60
2023-04-24T01:47:03.047Z,12.60
2023-04-24T01:49:31.396Z,12.60
2023-04-24T01:51:59.345Z,12.60
2023-04-24T01:54:27.420Z,12.50
2023-04-24T01:56:56.914Z,12.60
2023-04-24T01:59:27.323Z,12.50
2023-04-24T02:01:55.327Z,12.40
2023-04-24T02:04:23.475Z,12.40
2023-04-24T02:06:51.735Z,12.40
2023-04-24T02:09:19.715Z,12.40
2023-04-24T02:11:47.658Z,12.40
2023-04-24T02:14:16.993Z,12.40
2023-04-24T02:16:45.171Z,12.40
2023-04-24T02:19:13.270Z,12.30
2023-04-24T02:21:41.247Z,12.30
2023-04-24T02:24:09.197Z,12.40
2023-04-24T02:26:37.190Z,12.40
2023-04-24T02:29:05.163Z,12.40
2023-04-24T02:31:34.899Z,12.40
2023-04-24T02:34:02.914Z,12.50
2023-04-24T02:36:31.319Z,12.30
2023-04-24T02:38:59.316Z,12.20
2023-04-24T02:41:32.264Z,12.20
2023-04-24T02:44:00.406Z,12.20
2023-04-24T02:46:28.483Z,12.30
2023-04-24T02:48:57.896Z,12.30
2023-04-24T02:51:26.148Z,12.30
2023-04-24T02:53:54.089Z,12.40
2023-04-24T02:56:22.050Z,12.30
2023-04-24T02:58:50.015Z,12.30
2023-04-24T03:01:18.941Z,12.20
2023-04-24T03:03:47.073Z,12.10
2023-04-24T03:06:16.631Z,12.20
2023-04-24T03:08:44.602Z,12.30
2023-04-24T03:11:12.515Z,12.20
2023-04-24T03:13:40.737Z,12.30
2023-04-24T03:16:08.717Z,12.30
2023-04-24T03:18:36.716Z,12.30
2023-04-24T03:21:05.035Z,12.40
2023-04-24T03:23:34.358Z,12.40
2023-04-24T03:26:03.358Z,12.40
2023-04-24T03:28:31.333Z,12.40
2023-04-24T03:30:59.286Z,12.50
2023-04-24T03:33:27.241Z,12.20
2023-04-24T03:35:55.173Z,12.30
2023-04-24T03:38:23.140Z,12.30
2023-04-24T03:40:52.454Z,12.40
2023-04-24T03:43:20.414Z,12.40
2023-04-24T03:45:48.467Z,12.40
2023-04-24T03:48:16.490Z,12.40
2023-04-24T03:50:44.472Z,12.40
2023-04-24T03:53:12.439Z,12.40
2023-04-24T03:55:40.439Z,12.30
2023-04-24T03:58:09.749Z,12.30
2023-04-24T04:00:38.553Z,12.30
2023-04-24T04:03:06.856Z,12.30
2023-04-24T04:05:35.081Z,12.40
2023-04-24T04:08:03.110Z,12.40
2023-04-24T04:10:31.090Z,12.50
2023-04-24T04:12:59.148Z,12.60
2023-04-24T04:15:28.511Z,12.80
2023-04-24T04:17:56.576Z,12.90
2023-04-24T04:20:24.792Z,13.00
2023-04-24T04:22:52.721Z,13.00
2023-04-24T04:25:20.898Z,12.90
2023-04-24T04:27:49.589Z,13.10
2023-04-24T04:30:17.534Z,13.00
2023-04-24T04:32:46.896Z,13.00
2023-04-24T04:35:15.006Z,13.00
2023-04-24T04:37:42.951Z,13.10
2023-04-24T04:40:12.870Z,13.20
2023-04-24T04:42:41.709Z,13.30
2023-04-24T04:45:12.031Z,13.50
2023-04-24T04:47:40.560Z,13.60
2023-04-24T04:50:11.599Z,13.90
2023-04-24T04:52:39.621Z,14.00
2023-04-24T04:55:08.688Z,14.30
2023-04-24T04:57:36.760Z,14.50
2023-04-24T05:00:05.805Z,14.60
2023-04-24T05:02:33.889Z,14.70
2023-04-24T05:05:02.116Z,14.80
2023-04-24T05:07:31.623Z,15.00
2023-04-24T05:09:59.594Z,15.20
2023-04-24T05:12:27.964Z,15.30
2023-04-24T05:14:56.181Z,15.40
2023-04-24T05:17:24.278Z,15.50
2023-04-24T05:19:52.491Z,15.60
2023-04-24T05:22:21.992Z,15.60
2023-04-24T05:24:51.351Z,15.70
2023-04-24T05:27:19.327Z,15.90
2023-04-24T05:29:47.289Z,16.00
2023-04-24T05:32:15.309Z,16.10
2023-04-24T05:34:43.233Z,16.10
2023-04-24T05:37:11.224Z,16.20
2023-04-24T05:39:39.357Z,16.30
2023-04-24T05:42:08.966Z,16.40
2023-04-24T05:44:36.938Z,16.50
2023-04-24T05:47:05.724Z,16.50
2023-04-24T05:49:33.750Z,16.40
2023-04-24T05:52:01.728Z,16.50
2023-04-24T05:54:29.738Z,16.70
2023-04-24T05:56:57.730Z,16.70
2023-04-24T05:59:27.456Z,16.70
2023-04-24T06:01:55.422Z,16.70
2023-04-24T06:04:23.822Z,16.70
2023-04-24T06:06:56.748Z,16.80
2023-04-24T06:09:24.908Z,16.80
2023-04-24T06:11:53.957Z,16.70
2023-04-24T06:14:22.253Z,16.70
2023-04-24T06:16:51.988Z,16.70
2023-04-24T06:19:20.108Z,16.80
2023-04-24T06:21:48.252Z,16.70
2023-04-24T06:24:17.023Z,16.70
2023-04-24T06:26:45.058Z,16.60
2023-04-24T06:29:12.990Z,16.70
2023-04-24T06:31:41.224Z,16.70
2023-04-24T06:34:10.623Z,16.70
2023-04-24T06:36:38.780Z,16.80
2023-04-24T06:39:06.988Z,16.80
2023-04-24T06:41:34.992Z,16.80
2023-04-24T06:44:03.436Z,16.80
2023-04-24T06:46:31.666Z,16.90
2023-04-24T06:48:59.638Z,17.00
2023-04-24T06:51:29.807Z,17.10
2023-04-24T06:53:57.980Z,17.10
2023-04-24T06:56:26.231Z,17.20
2023-04-24T06:58:54.886Z,17.20
2023-04-24T07:01:23.018Z,17.30
2023-04-24T07:03:51.182Z,17.30
2023-04-24T07:06:22.433Z,17.50
2023-04-24T07:08:51.968Z,17.50
2023-04-24T07:11:19.959Z,17.80
2023-04-24T07:13:47.928Z,18.10
2023-04-24T07:16:15.954Z,18.30
2023-04-24T07:18:44.489Z,18.30
2023-04-24T07:21:12.763Z,18.40
2023-04-24T07:23:42.294Z,18.50
2023-04-24T07:26:11.734Z,18.70
2023-04-24T07:28:39.720Z,18.70
2023-04-24T07:31:07.812Z,18.80
2023-04-24T07:33:37.380Z,18.80
2023-04-24T07:36:06.217Z,18.80
2023-04-24T07:38:36.436Z,18.80
2023-04-24T07:41:07.263Z,18.80
2023-04-24T07:43:36.870Z,18.70
2023-04-24T07:46:06.086Z,18.80
2023-04-24T07:48:35.753Z,19.00
2023-04-24T07:51:03.921Z,19.00
2023-04-24T07:53:31.876Z,19.20
2023-04-24T07:56:00.088Z,19.30
2023-04-24T07:58:28.277Z,19.30
2023-04-24T08:00:58.423Z,19.40
2023-04-24T08:03:26.981Z,19.50
2023-04-24T08:05:55.462Z,19.50
2023-04-24T08:08:25.058Z,19.70
2023-04-24T08:10:53.817Z,19.90
2023-04-24T08:13:21.941Z,19.90
2023-04-24T08:15:50.115Z,20.30
2023-04-24T08:18:19.879Z,20.30
2023-04-24T08:20:47.934Z,20.50
2023-04-24T08:23:16.113Z,20.60
2023-04-24T08:25:44.141Z,20.80
2023-04-24T08:28:12.399Z,20.90
2023-04-24T08:30:40.670Z,21.30
2023-04-24T08:33:08.983Z,21.50
2023-04-24T08:35:38.667Z,21.80
2023-04-24T08:38:06.842Z,23.20
2023-04-24T08:40:36.864Z,25.80
2023-04-24T08:43:06.061Z,27.50
2023-04-24T08:45:35.365Z,28.90
2023-04-24T08:48:04.562Z,30.00
2023-04-24T08:50:34.688Z,30.40
2023-04-24T08:53:05.134Z,30.40
2023-04-24T08:55:34.746Z,31.10
2023-04-24T08:58:04.298Z,30.80
2023-04-24T09:00:32.445Z,30.30
2023-04-24T09:03:02.669Z,30.40
2023-04-24T09:05:31.259Z,30.30
2023-04-24T09:08:00.154Z,31.30
2023-04-24T09:10:31.611Z,32.60
2023-04-24T09:13:02.907Z,33.50
2023-04-24T09:15:31.822Z,35.60
2023-04-24T09:18:00.212Z,36.70
2023-04-24T09:20:28.252Z,35.20
2023-04-24T09:22:57.111Z,35.60
2023-04-24T09:25:27.475Z,36.40
2023-04-24T09:27:56.848Z,36.50
2023-04-24T09:30:25.077Z,37.30
2023-04-24T09:33:12.262Z,36.70
2023-04-24T09:35:44.015Z,34.10
2023-04-24T09:38:12.365Z,31.90
2023-04-24T09:40:42.366Z,30.20
2023-04-24T09:43:13.579Z,29.00
2023-04-24T09:45:42.381Z,27.70
2023-04-24T09:48:12.235Z,26.80
2023-04-24T09:50:40.455Z,26.40
2023-04-24T09:53:09.941Z,25.80
2023-04-24T09:55:42.030Z,25.00
2023-04-24T09:58:10.557Z,25.00
2023-04-24T10:00:40.047Z,25.20
2023-04-24T10:03:09.296Z,25.40
2023-04-24T10:05:39.790Z,25.70
2023-04-24T10:08:09.754Z,25.90
2023-04-24T10:10:45.044Z,26.30
2023-04-24T10:13:15.328Z,27.00
2023-04-24T10:15:45.366Z,27.30
2023-04-24T10:18:13.802Z,28.10
2023-04-24T10:20:42.562Z,28.00
2023-04-24T10:23:10.612Z,27.40
2023-04-24T10:25:38.858Z,26.60
2023-04-24T10:28:09.756Z,26.10
2023-04-24T10:30:39.117Z,25.80
2023-04-24T10:33:10.555Z,25.80
2023-04-24T10:35:43.692Z,25.60
2023-04-24T10:38:15.127Z,25.90
2023-04-24T10:40:44.707Z,26.30
2023-04-24T10:43:12.952Z,26.00
2023-04-24T10:45:41.280Z,25.50
2023-04-24T10:48:14.744Z,25.00
2023-04-24T10:50:48.012Z,24.80
2023-04-24T10:53:19.189Z,24.50
2023-04-24T10:55:49.532Z,24.20
2023-04-24T10:58:18.739Z,24.10
2023-04-24T11:00:57.120Z,23.70
2023-04-24T11:03:28.979Z,23.40
2023-04-24T11:06:02.882Z,23.10
2023-04-24T11:08:39.390Z,22.80
2023-04-24T11:11:12.230Z,22.60
2023-04-24T11:14:07.583Z,22.30
2023-04-24T11:16:39.367Z,22.10
2023-04-24T11:19:10.903Z,22.00
2023-04-24T11:21:43.873Z,22.00
2023-04-24T11:24:29.054Z,21.90
2023-04-24T11:26:58.993Z,21.80
2023-04-24T11:29:41.928Z,21.50
2023-04-24T11:32:27.638Z,21.30
2023-04-24T11:34:58.296Z,21.20
2023-04-24T11:37:28.661Z,21.00
2023-04-24T11:39:59.140Z,20.90
2023-04-24T11:42:27.793Z,20.90
2023-04-24T11:44:57.730Z,20.90
2023-04-24T11:47:31.234Z,20.90
2023-04-24T11:50:01.956Z,21.00
2023-04-24T11:52:30.915Z,21.20
2023-04-24T11:54:59.431Z,21.20
2023-04-24T11:57:30.003Z,21.40
2023-04-24T11:59:58.050Z,21.70
2023-04-24T12:02:27.057Z,22.20
2023-04-24T12:04:55.771Z,22.60
2023-04-24T12:07:26.497Z,22.40
2023-04-24T12:09:59.479Z,22.40
2023-04-24T12:12:29.260Z,22.20
2023-04-24T12:14:59.607Z,22.10
2023-04-24T12:17:29.724Z,22.00
2023-04-24T12:20:00.368Z,21.80
2023-04-24T12:22:29.807Z,21.80
2023-04-24T12:25:02.506Z,21.60
2023-04-24T12:27:35.065Z,21.50
2023-04-24T12:30:04.880Z,21.50
2023-04-24T12:32:33.217Z,21.50
2023-04-24T12:35:01.238Z,21.30
2023-04-24T12:37:37.448Z,21.40
2023-04-24T12:40:08.840Z,21.40
2023-04-24T12:42:38.197Z,21.40
2023-04-24T12:45:09.128Z,21.30
2023-04-24T12:47:37.755Z,21.10
2023-04-24T12:50:07.074Z,21.00
2023-04-24T12:52:36.683Z,20.90
2023-04-24T12:55:05.888Z,20.90
2023-04-24T12:57:33.884Z,21.00
2023-04-24T13:00:01.836Z,20.90
2023-04-24T13:02:32.608Z,20.90
2023-04-24T13:05:01.248Z,20.80
2023-04-24T13:07:30.067Z,20.70
2023-04-24T13:09:59.639Z,20.50
2023-04-24T13:12:27.813Z,20.60
2023-04-24T13:14:56.803Z,20.50
2023-04-24T13:17:24.843Z,20.70
2023-04-24T13:19:53.992Z,20.60
2023-04-24T13:22:23.119Z,20.70
2023-04-24T13:24:51.103Z,20.70
2023-04-24T13:27:21.144Z,20.50
2023-04-24T13:29:49.124Z,20.60
2023-04-24T13:32:17.346Z,20.40
2023-04-24T13:34:45.681Z,20.20
2023-04-24T13:37:13.718Z,20.10
2023-04-24T13:39:42.442Z,20.10
2023-04-24T13:42:11.813Z,19.90
2023-04-24T13:44:41.417Z,19.70
2023-04-24T13:47:09.412Z,19.60
2023-04-24T13:49:37.469Z,19.40
2023-04-24T13:52:05.518Z,19.30
2023-04-24T13:54:33.812Z,19.30
2023-04-24T13:57:03.948Z,19.20
2023-04-24T13:59:32.035Z,19.20
2023-04-24T14:02:01.363Z,19.10
2023-04-24T14:04:29.444Z,19.00
2023-04-24T14:06:57.741Z,18.80
2023-04-24T14:09:25.745Z,18.60
2023-04-24T14:11:54.201Z,18.40
2023-04-24T14:14:22.165Z,18.40
2023-04-24T14:16:50.203Z,18.20
2023-04-24T14:19:19.541Z,18.10
2023-04-24T14:21:47.494Z,17.80
2023-04-24T14:24:15.899Z,17.80
2023-04-24T14:26:43.892Z,17.80
2023-04-24T14:29:15.060Z,17.80
2023-04-24T14:31:43.893Z,17.80
2023-04-24T14:34:11.930Z,17.80
2023-04-24T14:36:41.556Z,17.70
2023-04-24T14:39:09.558Z,17.70
2023-04-24T14:41:38.258Z,17.80
2023-04-24T14:44:06.653Z,17.80
2023-04-24T14:46:34.912Z,17.80
2023-04-24T14:49:03.122Z,18.00
2023-04-24T14:51:31.438Z,18.00
2023-04-24T14:54:00.789Z,18.00
2023-04-24T14:56:28.844Z,18.00
2023-04-24T14:58:57.351Z,17.90
2023-04-24T15:01:26.000Z,17.90
2023-04-24T15:03:54.314Z,17.90
2023-04-24T15:06:22.641Z,17.90
2023-04-24T15:08:51.052Z,17.90
2023-04-24T15:11:20.945Z,18.00
2023-04-24T15:13:49.153Z,17.90
2023-04-24T15:16:17.578Z,18.00
2023-04-24T15:18:45.991Z,17.80
2023-04-24T15:21:14.251Z,17.70
2023-04-24T15:23:42.381Z,17.60
2023-04-24T15:26:10.444Z,17.50
2023-04-24T15:28:39.812Z,17.60
2023-04-24T15:31:07.842Z,17.70
2023-04-24T15:33:35.824Z,17.80
2023-04-24T15:36:03.769Z,17.80
2023-04-24T15:38:31.763Z,17.70
2023-04-24T15:40:59.817Z,17.80
2023-04-24T15:43:27.784Z,17.80
2023-04-24T15:45:57.672Z,17.70
2023-04-24T15:48:25.776Z,17.60
2023-04-24T15:50:53.809Z,17.50
2023-04-24T15:53:22.975Z,17.40
2023-04-24T15:55:51.494Z,17.40
2023-04-24T15:58:21.497Z,17.30
2023-04-24T16:00:50.032Z,17.40
2023-04-24T16:03:19.505Z,17.60
2023-04-24T16:05:47.643Z,17.40
2023-04-24T16:08:15.762Z,17.30
2023-04-24T16:10:44.246Z,17.30
2023-04-24T16:13:12.290Z,17.20
2023-04-24T16:15:41.326Z,17.10
2023-04-24T16:18:09.411Z,16.90
2023-04-24T16:20:38.779Z,16.70
2023-04-24T16:23:06.777Z,16.60
2023-04-24T16:25:34.791Z,16.50
2023-04-24T16:28:03.214Z,16.30
2023-04-24T16:30:31.772Z,16.40
2023-04-24T16:32:59.789Z,16.40
2023-04-24T16:35:27.874Z,16.30
2023-04-24T16:37:57.276Z,16.30
2023-04-24T16:40:25.304Z,16.20
2023-04-24T16:42:54.823Z,16.10
2023-04-24T16:45:22.799Z,16.00
2023-04-24T16:47:50.873Z,16.00
2023-04-24T16:50:18.958Z,15.90
2023-04-24T16:52:46.899Z,15.90
2023-04-24T16:55:16.394Z,15.90
2023-04-24T16:57:44.343Z,15.90
2023-04-24T17:00:13.657Z,15.80
2023-04-24T17:02:41.869Z,15.80
2023-04-24T17:05:10.211Z,15.80
2023-04-24T17:07:38.258Z,15.80
2023-04-24T17:10:09.078Z,15.70
2023-04-24T17:12:38.421Z,15.70
2023-04-24T17:15:07.598Z,15.60
2023-04-24T17:17:36.378Z,15.60
2023-04-24T17:20:14.888Z,15.60
2023-04-24T17:22:49.017Z,15.50
2023-04-24T17:25:17.011Z,15.50
2023-04-24T17:27:46.698Z,15.40
2023-04-24T17:30:15.807Z,15.40
2023-04-24T17:32:43.815Z,15.40
2023-04-24T17:35:12.478Z,15.30
2023-04-24T17:37:40.937Z,15.40
2023-04-24T17:40:10.085Z,15.50
2023-04-24T17:42:41.483Z,15.40
2023-04-24T17:45:12.408Z,15.40
2023-04-24T17:47:41.104Z,15.40
2023-04-24T17:50:09.822Z,15.40
2023-04-24T17:52:37.799Z,15.40
2023-04-24T17:55:06.581Z,15.30
2023-04-24T17:57:34.625Z,15.30
2023-04-24T18:00:03.000Z,15.30
2023-04-24T18:02:32.492Z,15.20
2023-04-24T18:05:00.727Z,15.10
2023-04-24T18:07:28.742Z,15.10
2023-04-24T18:09:56.835Z,15.10
2023-04-24T18:12:25.052Z,15.10
2023-04-24T18:14:59.755Z,15.00
2023-04-24T18:17:35.924Z,15.00
2023-04-24T18:20:04.180Z,14.90
2023-04-24T18:22:32.229Z,14.90
2023-04-24T18:25:00.309Z,14.80
2023-04-24T18:27:30.953Z,14.80
2023-04-24T18:29:59.114Z,14.80
2023-04-24T18:32:27.687Z,14.80
2023-04-24T18:34:57.079Z,14.80
2023-04-24T18:37:25.020Z,14.80
2023-04-24T18:39:54.300Z,14.70
2023-04-24T18:42:22.843Z,14.70
2023-04-24T18:44:51.310Z,14.70
2023-04-24T18:47:19.231Z,14.70
2023-04-24T18:49:47.212Z,14.70
2023-04-24T18:52:16.519Z,14.70
2023-04-24T18:54:44.505Z,14.60
2023-04-24T18:57:12.724Z,14.60
2023-04-24T18:59:40.685Z,14.60
2023-04-24T19:02:09.296Z,14.60
2023-04-24T19:04:37.243Z,14.60
2023-04-24T19:07:05.411Z,14.50
2023-04-24T19:09:34.831Z,14.60
2023-04-24T19:12:02.860Z,14.60
2023-04-24T19:14:30.895Z,14.60
2023-04-24T19:16:58.882Z,14.50
2023-04-24T19:19:28.996Z,14.50
2023-04-24T19:21:56.953Z,14.40
2023-04-24T19:24:26.056Z,14.40
2023-04-24T19:26:55.466Z,14.50
2023-04-24T19:29:23.458Z,14.50
2023-04-24T19:31:52.851Z,14.40
2023-04-24T19:34:20.933Z,14.40
2023-04-24T19:36:48.880Z,14.40
2023-04-24T19:39:17.314Z,14.40
2023-04-24T19:41:45.293Z,14.30
2023-04-24T19:44:15.699Z,14.40
2023-04-24T19:46:43.892Z,14.30
2023-04-24T19:49:12.606Z,14.30
2023-04-24T19:51:40.665Z,14.20
2023-04-24T19:54:08.963Z,14.20
2023-04-24T19:56:36.932Z,14.10
2023-04-24T19:59:04.922Z,14.20
2023-04-24T20:01:34.289Z,14.20
2023-04-24T20:04:02.710Z,14.10
2023-04-24T20:06:31.511Z,14.10
2023-04-24T20:09:00.256Z,13.90
2023-04-24T20:11:28.246Z,14.00
2023-04-24T20:13:56.538Z,13.90
2023-04-24T20:16:24.638Z,13.90
2023-04-24T20:18:54.073Z,13.80
2023-04-24T20:21:22.284Z,13.90
2023-04-24T20:23:52.029Z,13.80
2023-04-24T20:26:20.016Z,13.80
2023-04-24T20:28:48.271Z,13.70
2023-04-24T20:31:16.551Z,13.80
2023-04-24T20:33:45.548Z,13.70
2023-04-24T20:36:14.868Z,13.70
2023-04-24T20:38:42.836Z,13.70
2023-04-24T20:41:10.828Z,13.70
2023-04-24T20:43:38.921Z,13.60
2023-04-24T20:46:07.117Z,13.60
2023-04-24T20:48:35.175Z,13.50
2023-04-24T20:51:03.121Z,13.70
2023-04-24T20:53:32.538Z,13.70
2023-04-24T20:56:00.624Z,13.70
2023-04-24T20:58:28.681Z,13.70
2023-04-24T21:00:56.753Z,13.70
2023-04-24T21:03:24.810Z,13.60
2023-04-24T21:05:52.851Z,13.60
2023-04-24T21:08:20.891Z,13.60
2023-04-24T21:10:51.832Z,13.60
2023-04-24T21:13:19.825Z,13.50
2023-04-24T21:15:47.850Z,13.40
2023-04-24T21:18:16.208Z,13.40
2023-04-24T21:20:44.293Z,13.40
2023-04-24T21:23:12.277Z,13.30
2023-04-24T21:25:40.573Z,13.20
2023-04-24T21:28:10.146Z,13.20
2023-04-24T21:30:38.986Z,13.00
2023-04-24T21:33:07.179Z,12.90
2023-04-24T21:35:35.679Z,12.80
2023-04-24T21:38:03.793Z,12.60
2023-04-24T21:40:31.798Z,12.60
2023-04-24T21:42:59.851Z,12.70
2023-04-24T21:45:29.272Z,12.60
2023-04-24T21:47:58.511Z,12.60
2023-04-24T21:50:26.545Z,12.60
2023-04-24T21:52:54.513Z,12.60
2023-04-24T21:55:22.824Z,12.50
2023-04-24T21:57:50.833Z,12.50
2023-04-24T22:00:19.508Z,12.40
2023-04-24T22:02:49.064Z,12.40
2023-04-24T22:05:17.800Z,12.40
2023-04-24T22:07:49.792Z,12.40
2023-04-24T22:10:18.748Z,12.50
2023-04-24T22:12:46.740Z,12.50
2023-04-24T22:15:14.730Z,12.50
2023-04-24T22:17:43.554Z,12.50
2023-04-24T22:20:13.978Z,12.40
2023-04-24T22:22:41.954Z,12.30
2023-04-24T22:25:11.013Z,12.20
2023-04-24T22:27:39.102Z,12.20
2023-04-24T22:30:09.232Z,12.10
2023-04-24T22:32:37.817Z,12.20
2023-04-24T22:35:06.443Z,12.20
2023-04-24T22:37:35.926Z,12.20
2023-04-24T22:40:05.458Z,12.20
2023-04-24T22:42:33.570Z,12.20
2023-04-24T22:45:01.745Z,12.20
2023-04-24T22:47:30.679Z,12.20
2023-04-24T22:49:59.376Z,12.20
2023-04-24T22:52:28.885Z,12.10
2023-04-24T22:54:58.184Z,12.00
2023-04-24T22:57:26.157Z,12.00
2023-04-24T22:59:54.841Z,12.00
2023-04-24T23:02:23.138Z,12.10
2023-04-24T23:04:51.517Z,12.10
2023-04-24T23:07:19.589Z,12.00
2023-04-24T23:09:47.552Z,12.00
2023-04-24T23:12:16.867Z,12.00
2023-04-24T23:14:45.025Z,12.00
2023-04-24T23:17:14.443Z,12.00
2023-04-24T23:19:42.391Z,12.10
2023-04-24T23:22:10.487Z,12.10
2023-04-24T23:24:38.539Z,12.10
2023-04-24T23:27:06.626Z,12.10
2023-04-24T23:29:36.006Z,12.10
2023-04-24T23:32:03.997Z,12.10
2023-04-24T23:34:33.992Z,12.10
2023-04-24T23:37:02.378Z,12.00
2023-04-24T23:39:30.557Z,12.10
2023-04-24T23:41:59.895Z,12.00
2023-04-24T23:44:28.658Z,12.00
2023-04-24T23:46:58.125Z,12.00
2023-04-24T23:49:26.186Z,11.90
2023-04-24T23:51:54.582Z,12.00
2023-04-24T23:54:22.703Z,12.00
2023-04-24T23:56:51.182Z,12.00
2023-04-24T23:59:20.669Z,11.90
